Archival Weather

Luke Afb

Glendale, Arizona (KLUF)

Report from: Friday, April 19, 2024 9:55 PM MST
Current time: Monday, June 24, 2024 3:23 AM MST

Current weather – Weather history – Daily summaries
Weather forecast

Temperature27.2°C (81.0°F)
Heat index26.4°C (79.6°F)
Dew point1.6°C (34.9°F)
Winds Calm
Visibility8 mi. (12.9 km)
Clouds Scattered clouds 17,000 ft. (5,182 m)
Altimeter29.77 in.Hg (1008 mB)
PrecipitiationTrace
Precip. events Rain began 4:14 AM
Rain ended 4:24 AM
Relative humidity19 %
Density altitude1,726 ft. (526 m)
Sea-level pressure100.7 kPa (1007 mB, 29.73 in.Hg)
Remarks Fully automated report
System requires maintenance
Automated weather observing station with precipitation discriminator
Flight conditions Visual Meteorological Conditions
Raw dataKLUF 200455Z AUTO 00000KT 8SM SCT170 27/02 A2977 RMK AO2 RAB14E24 SLP069 P0000 T02720016 $
An error has occurred. This application may no longer respond until reloaded. Reload 🗙